Time;durP1;ratioP1;P1;durP2;ratioP2;P2;SDS_P1;SDS_P2;PMS_P1;PMS_P2;Temp;Humidity;BMP_temperature;BMP_pressure;BME280_temperature;BME280_humidity;BME280_pressure;Samples;Min_cycle;Max_cycle;Signal;HPM_P1;HPM_P2
2024/04/08 00:04:19;;;;;;;1999.90;999.90;;;;;;;14.39;100.00;101095.88;10439501;28;20049;-69
2024/04/08 00:09:20;;;;;;;1999.90;999.90;;;;;;;14.28;100.00;101107.16;10439351;28;20060;-69
2024/04/08 00:14:21;;;;;;;1999.90;999.90;;;;;;;14.28;100.00;101093.97;10438325;28;20045;-69
2024/04/08 00:19:23;;;;;;;1999.90;999.90;;;;;;;14.18;100.00;101113.16;10422496;28;20167;-69
2024/04/08 00:24:24;;;;;;;1999.90;999.90;;;;;;;13.98;100.00;101107.41;10438145;28;20542;-69
2024/04/08 00:29:27;;;;;;;1999.90;999.90;;;;;;;14.14;100.00;101088.81;10438042;28;20411;-69
2024/04/08 00:34:28;;;;;;;1999.90;999.90;;;;;;;14.07;100.00;101085.75;10437908;28;20056;-69
2024/04/08 00:39:29;;;;;;;1999.90;999.90;;;;;;;14.23;100.00;101084.72;10438202;28;20064;-69
2024/04/08 00:44:31;;;;;;;1999.90;999.90;;;;;;;13.94;100.00;101088.34;10429110;28;20049;-69
2024/04/08 00:49:33;;;;;;;1999.90;999.90;;;;;;;14.16;100.00;101083.44;10430488;28;20056;-69
2024/04/08 00:54:35;;;;;;;1999.90;999.90;;;;;;;13.99;100.00;101081.97;10446599;28;20053;-69
2024/04/08 00:59:36;;;;;;;1999.90;999.90;;;;;;;13.85;100.00;101090.75;10445729;28;20393;-69
2024/04/08 01:04:38;;;;;;;1999.90;999.90;;;;;;;13.74;100.00;101080.97;10445796;28;20404;-69
2024/04/08 01:09:39;;;;;;;1999.90;999.90;;;;;;;13.78;100.00;101065.81;10446242;28;20087;-69
2024/04/08 01:14:41;;;;;;;1999.90;999.90;;;;;;;13.67;100.00;101056.00;10446034;28;20170;-69
2024/04/08 01:19:44;;;;;;;1999.90;999.90;;;;;;;13.69;100.00;101041.78;10429420;28;20059;-69
2024/04/08 01:24:46;;;;;;;1999.90;999.90;;;;;;;13.64;100.00;101046.50;10444727;28;20049;-69
2024/04/08 01:29:47;;;;;;;1999.90;999.90;;;;;;;13.67;100.00;101054.22;10444633;28;20083;-69
2024/04/08 01:34:48;;;;;;;1999.90;999.90;;;;;;;13.53;100.00;101036.72;10444694;28;20049;-69
2024/04/08 01:39:50;;;;;;;1999.90;999.90;;;;;;;13.45;100.00;101041.63;10444090;28;20053;-69
2024/04/08 01:44:51;;;;;;;1999.90;999.90;;;;;;;13.35;100.00;101030.03;10444015;28;20076;-68
2024/04/08 01:49:53;;;;;;;1999.90;999.90;;;;;;;13.52;100.00;101024.50;10444358;28;20049;-69
2024/04/08 01:54:54;;;;;;;1999.90;999.90;;;;;;;13.57;100.00;101026.81;10442977;28;20102;-69
2024/04/08 01:59:56;;;;;;;1999.90;999.90;;;;;;;13.66;100.00;101036.72;10444261;28;20059;-69
2024/04/08 02:04:57;;;;;;;1999.90;999.90;;;;;;;13.53;100.00;101041.09;10443962;28;20061;-69
2024/04/08 02:09:59;;;;;;;1999.90;999.90;;;;;;;13.58;100.00;101033.75;10443648;28;20122;-69
2024/04/08 02:15:00;;;;;;;1999.90;999.90;;;;;;;13.48;100.00;101030.91;10443693;28;20045;-69
2024/04/08 02:20:03;;;;;;;1999.90;999.90;;;;;;;13.52;100.00;101034.19;10427029;28;20057;-69
2024/04/08 02:25:05;;;;;;;1999.90;999.90;;;;;;;13.53;100.00;101020.06;10426747;28;20060;-69
2024/04/08 02:30:07;;;;;;;1999.90;999.90;;;;;;;13.34;100.00;101000.25;10442399;28;20072;-69
2024/04/08 02:35:08;;;;;;;1999.90;999.90;;;;;;;13.19;100.00;100998.59;10442039;28;20075;-69
2024/04/08 02:40:10;;;;;;;1999.90;999.90;;;;;;;13.26;100.00;101004.28;10442422;28;20053;-69
2024/04/08 02:45:12;;;;;;;1999.90;999.90;;;;;;;13.40;100.00;100985.00;10443268;28;20053;-69
2024/04/08 02:50:13;;;;;;;1999.90;999.90;;;;;;;13.46;100.00;100980.19;10425132;28;20122;-69
2024/04/08 02:55:15;;;;;;;1999.90;999.90;;;;;;;13.50;100.00;100979.03;10414244;23;20068;-62
2024/04/08 03:00:16;;;;;;;1999.90;999.90;;;;;;;13.52;100.00;100979.78;10384663;28;20060;-62
2024/04/08 03:05:18;;;;;;;1999.90;999.90;;;;;;;13.49;100.00;100964.19;10400208;28;20068;-62
2024/04/08 03:10:19;;;;;;;1999.90;999.90;;;;;;;13.46;100.00;100984.59;10400396;28;20053;-63
2024/04/08 03:15:20;;;;;;;1999.90;999.90;;;;;;;13.53;100.00;100962.19;10399387;28;20476;-62
2024/04/08 03:20:22;;;;;;;1999.90;999.90;;;;;;;13.54;100.00;100964.72;10399360;28;20492;-62
2024/04/08 03:25:23;;;;;;;1999.90;999.90;;;;;;;13.41;100.00;100984.91;10399064;28;20539;-62
2024/04/08 03:30:25;;;;;;;1999.90;999.90;;;;;;;13.46;100.00;100982.81;10383552;28;20060;-62
2024/04/08 03:35:28;;;;;;;1999.90;999.90;;;;;;;13.36;100.00;100993.13;10399039;28;20045;-62
2024/04/08 03:40:29;;;;;;;1999.90;999.90;;;;;;;13.58;100.00;101004.81;10399373;28;20057;-62
2024/04/08 03:45:31;;;;;;;1999.90;999.90;;;;;;;13.43;100.00;101005.84;10398969;28;20049;-62
2024/04/08 03:50:37;;;;;;;1999.90;999.90;;;;;;;13.54;100.00;101011.25;10398696;28;20056;-62
2024/04/08 03:55:39;;;;;;;1999.90;999.90;;;;;;;13.71;100.00;101000.41;10398077;28;20053;-62
2024/04/08 04:00:41;;;;;;;1999.90;999.90;;;;;;;13.70;100.00;100996.13;10398449;28;20057;-62
2024/04/08 04:05:42;;;;;;;1999.90;999.90;;;;;;;13.72;100.00;100982.88;10398396;28;20061;-63
2024/04/08 04:10:46;;;;;;;1999.90;999.90;;;;;;;13.67;100.00;100970.00;10398114;28;20064;-62
2024/04/08 04:15:47;;;;;;;1999.90;999.90;;;;;;;13.57;100.00;100958.44;10396893;28;20116;-63
2024/04/08 04:20:49;;;;;;;1999.90;999.90;;;;;;;13.68;100.00;100945.38;10397860;28;20103;-62
2024/04/08 04:25:57;;;;;;;1999.90;999.90;;;;;;;13.27;100.00;100959.50;10397547;28;20050;-62
2024/04/08 04:30:59;;;;;;;1999.90;999.90;;;;;;;13.38;100.00;100945.66;10397765;28;20053;-63
2024/04/08 04:36:03;;;;;;;1999.90;999.90;;;;;;;13.14;100.00;100927.91;10396955;28;20409;-62
2024/04/08 04:41:06;;;;;;;1999.90;999.90;;;;;;;13.33;100.00;100916.19;10381399;28;20058;-62
2024/04/08 04:46:07;;;;;;;1999.90;999.90;;;;;;;13.45;100.00;100914.53;10397444;28;20049;-62
2024/04/08 04:51:10;;;;;;;1999.90;999.90;;;;;;;13.54;100.00;100888.44;10396763;28;20420;-62
2024/04/08 04:56:11;;;;;;;1999.90;999.90;;;;;;;13.53;100.00;100917.47;10396540;28;20412;-63
2024/04/08 05:01:12;;;;;;;1999.90;999.90;;;;;;;13.51;100.00;100920.22;10397133;28;20077;-62
2024/04/08 05:06:14;;;;;;;1999.90;999.90;;;;;;;13.80;100.00;100906.88;10397081;28;20049;-62
2024/04/08 05:11:16;;;;;;;1999.90;999.90;;;;;;;13.64;100.00;100917.59;10397124;28;20049;-62
2024/04/08 05:16:17;;;;;;;1999.90;999.90;;;;;;;13.56;100.00;100928.63;10380652;28;20053;-63
2024/04/08 05:21:18;;;;;;;1999.90;999.90;;;;;;;13.68;100.00;100926.13;10396917;28;20096;-62
2024/04/08 05:26:20;;;;;;;1999.90;999.90;;;;;;;13.51;100.00;100950.94;10396560;28;20056;-62
2024/04/08 05:31:21;;;;;;;1999.90;999.90;;;;;;;13.60;100.00;100952.09;10404201;28;20057;-63
2024/04/08 05:36:23;;;;;;;1999.90;999.90;;;;;;;13.49;100.00;100963.34;10403232;28;20400;-63
2024/04/08 05:41:26;;;;;;;1999.90;999.90;;;;;;;13.47;100.00;100942.41;10403826;28;20049;-63
2024/04/08 05:46:27;;;;;;;1999.90;999.90;;;;;;;13.50;100.00;100946.63;10402924;28;20049;-62
2024/04/08 05:51:29;;;;;;;1999.90;999.90;;;;;;;13.56;100.00;100949.69;10403332;28;20053;-62
2024/04/08 05:56:30;;;;;;;1999.90;999.90;;;;;;;13.57;100.00;100982.09;10402785;28;20045;-62
2024/04/08 06:01:32;;;;;;;1999.90;999.90;;;;;;;13.64;100.00;101007.06;10403111;28;20088;-63
2024/04/08 06:06:33;;;;;;;1999.90;999.90;;;;;;;13.62;100.00;101003.69;10402931;28;20050;-62
2024/04/08 06:11:35;;;;;;;1999.90;999.90;;;;;;;13.85;100.00;100965.28;10401976;28;20079;-62
2024/04/08 06:16:36;;;;;;;1999.90;999.90;;;;;;;13.90;100.00;100925.47;10401950;28;20053;-62
2024/04/08 06:21:37;;;;;;;1999.90;999.90;;;;;;;14.08;100.00;100923.38;10386328;28;20107;-62
2024/04/08 06:26:40;;;;;;;1999.90;999.90;;;;;;;14.08;100.00;100915.47;10401936;28;20065;-62
2024/04/08 06:31:41;;;;;;;1999.90;999.90;;;;;;;14.12;100.00;100948.50;10401669;28;20459;-63
2024/04/08 06:36:43;;;;;;;1999.90;999.90;;;;;;;14.33;100.00;100948.81;10384625;28;20072;-62
2024/04/08 06:41:44;;;;;;;1999.90;999.90;;;;;;;14.26;100.00;100942.31;10384045;28;20054;-62
2024/04/08 06:46:46;;;;;;;1999.90;999.90;;;;;;;14.17;100.00;100970.13;10400675;28;20050;-63
2024/04/08 06:51:47;;;;;;;1999.90;999.90;;;;;;;14.46;100.00;100981.22;10400484;28;20064;-62
2024/04/08 06:56:48;;;;;;;1999.90;999.90;;;;;;;14.32;100.00;100983.97;10384132;28;20049;-62
2024/04/08 07:01:50;;;;;;;1999.90;999.90;;;;;;;14.08;100.00;100982.13;10400011;28;20083;-63
2024/04/08 07:06:51;;;;;;;1999.90;999.90;;;;;;;14.30;100.00;100985.88;10400795;28;20056;-63
2024/04/08 07:11:53;;;;;;;1999.90;999.90;;;;;;;14.16;100.00;100978.13;10399938;28;20501;-63
2024/04/08 07:16:54;;;;;;;1999.90;999.90;;;;;;;14.08;100.00;100971.59;10399480;28;20060;-63
2024/04/08 07:21:56;;;;;;;1999.90;999.90;;;;;;;14.38;100.00;100969.56;10399856;28;20054;-63
2024/04/08 07:26:57;;;;;;;1999.90;999.90;;;;;;;14.72;100.00;100964.53;10399688;28;20056;-62
2024/04/08 07:32:00;;;;;;;1999.90;999.90;;;;;;;15.11;100.00;100952.03;10398966;28;20049;-63
2024/04/08 07:37:01;;;;;;;1999.90;999.90;;;;;;;15.22;100.00;100934.44;10398770;28;20049;-63
2024/04/08 07:42:03;;;;;;;1999.90;999.90;;;;;;;15.61;100.00;100929.75;10398801;28;20057;-63
2024/04/08 07:47:04;;;;;;;1999.90;999.90;;;;;;;15.90;100.00;100931.13;10399067;28;20099;-63
2024/04/08 07:52:06;;;;;;;1999.90;999.90;;;;;;;16.47;100.00;100916.91;10398680;28;20053;-63
2024/04/08 07:57:08;;;;;;;1999.90;999.90;;;;;;;16.60;100.00;100921.22;10357392;28;20057;-62
2024/04/08 08:02:10;;;;;;;1999.90;999.90;;;;;;;16.95;100.00;100918.38;10374001;28;20069;-63
2024/04/08 08:07:11;;;;;;;1999.90;999.90;;;;;;;16.62;100.00;100914.00;10357392;28;20163;-63
2024/04/08 08:12:13;;;;;;;1999.90;999.90;;;;;;;17.04;100.00;100895.63;10357526;28;20078;-62
2024/04/08 08:17:15;;;;;;;1999.90;999.90;;;;;;;17.24;100.00;100892.13;10356934;28;20054;-63
2024/04/08 08:22:16;;;;;;;1999.90;999.90;;;;;;;17.37;100.00;100886.66;10357314;28;20080;-63
2024/04/08 08:27:17;;;;;;;1999.90;999.90;;;;;;;17.91;100.00;100881.25;10356411;28;20049;-63
2024/04/08 08:32:20;;;;;;;1999.90;999.90;;;;;;;16.98;94.71;100861.72;10357115;28;20054;-63
2024/04/08 08:37:21;;;;;;;1999.90;999.90;;;;;;;17.73;94.43;100835.97;10372951;28;20049;-63
2024/04/08 08:42:25;;;;;;;1999.90;999.90;;;;;;;18.34;96.52;100849.13;10356811;28;20062;-62
2024/04/08 08:47:26;;;;;;;1999.90;999.90;;;;;;;18.68;92.26;100879.75;10354337;28;20049;-62
2024/04/08 08:52:27;;;;;;;1999.90;999.90;;;;;;;18.29;84.75;100888.47;10342199;28;20065;-62
2024/04/08 08:57:30;;;;;;;1999.90;999.90;;;;;;;19.68;83.94;100871.34;10379693;28;20444;-62
2024/04/08 09:02:32;;;;;;;1999.90;999.90;;;;;;;18.90;86.79;100878.66;10398951;28;20057;-66
2024/04/08 09:07:33;;;;;;;1999.90;999.90;;;;;;;18.90;82.07;100879.47;10405273;28;20049;-65
2024/04/08 09:12:35;;;;;;;1999.90;999.90;;;;;;;19.56;83.48;100869.03;10388651;28;20053;-65
2024/04/08 09:17:36;;;;;;;1999.90;999.90;;;;;;;18.48;84.74;100863.81;10387896;28;20053;-65
2024/04/08 09:22:38;;;;;;;1999.90;999.90;;;;;;;19.16;78.22;100862.13;10404957;28;20053;-65
2024/04/08 09:27:39;;;;;;;1999.90;999.90;;;;;;;19.64;76.33;100869.16;10388438;28;20053;-65
2024/04/08 09:32:40;;;;;;;1999.90;999.90;;;;;;;20.69;73.94;100861.72;10387696;28;20511;-67
2024/04/08 09:37:42;;;;;;;1999.90;999.90;;;;;;;20.78;73.24;100856.34;10403476;28;20056;-66
2024/04/08 09:42:44;;;;;;;1999.90;999.90;;;;;;;22.15;71.65;100857.47;10370693;28;20493;-68
2024/04/08 09:47:46;;;;;;;1999.90;999.90;;;;;;;22.23;68.06;100843.31;10387208;28;20068;-67
2024/04/08 09:52:48;;;;;;;1999.90;999.90;;;;;;;22.23;67.43;100840.66;10387236;28;20057;-66
2024/04/08 09:57:51;;;;;;;1999.90;999.90;;;;;;;22.31;64.78;100819.38;10402736;28;20042;-67
2024/04/08 10:02:55;;;;;;;1999.90;999.90;;;;;;;22.42;66.23;100834.22;10386113;28;20049;-67
2024/04/08 10:07:57;;;;;;;1999.90;999.90;;;;;;;22.49;66.82;100831.72;10386037;28;20460;-64
2024/04/08 10:12:59;;;;;;;1999.90;999.90;;;;;;;23.91;65.86;100812.44;10401976;28;20049;-64
2024/04/08 10:18:01;;;;;;;1999.90;999.90;;;;;;;22.50;65.34;100810.22;10385124;28;20050;-64
2024/04/08 10:23:02;;;;;;;1999.90;999.90;;;;;;;24.45;61.08;100795.53;10369542;28;20393;-64
2024/04/08 10:28:14;;;;;;;1999.90;999.90;;;;;;;25.16;58.00;100781.84;10402341;28;20053;-64
2024/04/08 10:33:15;;;;;;;1999.90;999.90;;;;;;;23.69;57.64;100794.50;10402103;28;20050;-64
2024/04/08 10:38:17;;;;;;;1999.90;999.90;;;;;;;25.39;57.65;100786.34;10401024;28;20057;-64
2024/04/08 10:43:20;;;;;;;1999.90;999.90;;;;;;;23.96;54.45;100782.53;10401988;28;20054;-64
2024/04/08 10:48:21;;;;;;;1999.90;999.90;;;;;;;24.11;57.93;100791.44;10401209;28;20049;-64
2024/04/08 10:53:25;;;;;;;1999.90;999.90;;;;;;;23.69;57.66;100786.47;10400577;28;20492;-64
2024/04/08 10:58:27;;;;;;;1999.90;999.90;;;;;;;23.61;61.45;100786.50;10400433;28;20112;-65
2024/04/08 11:03:28;;;;;;;1999.90;999.90;;;;;;;22.04;62.86;100794.63;10400796;28;20053;-64
2024/04/08 11:08:30;;;;;;;1999.90;999.90;;;;;;;21.39;64.91;100791.69;10383640;28;20057;-64
2024/04/08 11:13:31;;;;;;;1999.90;999.90;;;;;;;21.61;61.97;100769.00;10384420;28;20053;-64
2024/04/08 11:18:37;;;;;;;1999.90;999.90;;;;;;;21.92;62.31;100766.59;10383059;28;20416;-64
2024/04/08 11:23:42;;;;;;;1999.90;999.90;;;;;;;21.74;61.42;100769.38;10383673;28;20103;-64
2024/04/08 11:28:44;;;;;;;1999.90;999.90;;;;;;;21.71;63.68;100770.53;10398750;28;20053;-65
2024/04/08 11:33:45;;;;;;;1999.90;999.90;;;;;;;21.41;65.24;100769.22;10399950;28;20049;-65
2024/04/08 11:38:46;;;;;;;1999.90;999.90;;;;;;;20.93;64.22;100767.94;10399645;28;20065;-64
2024/04/08 11:43:48;;;;;;;1999.90;999.90;;;;;;;20.50;65.79;100756.31;10399271;28;20058;-65
2024/04/08 11:48:49;;;;;;;1999.90;999.90;;;;;;;20.59;65.73;100763.34;10398315;28;20060;-64
2024/04/08 11:53:51;;;;;;;1999.90;999.90;;;;;;;20.28;66.41;100771.75;10398276;28;20111;-64
2024/04/08 11:58:53;;;;;;;1999.90;999.90;;;;;;;20.17;69.62;100746.25;10381739;28;20049;-64
2024/04/08 12:03:54;;;;;;;1999.90;999.90;;;;;;;20.16;67.86;100754.34;10398751;28;20116;-64
2024/04/08 12:08:56;;;;;;;1999.90;999.90;;;;;;;20.14;68.23;100756.31;10398452;28;20114;-65
2024/04/08 12:13:57;;;;;;;1999.90;999.90;;;;;;;20.10;70.62;100757.63;10397574;28;20412;-64
2024/04/08 12:19:00;;;;;;;1999.90;999.90;;;;;;;19.75;70.94;100754.75;10397454;28;20053;-64
2024/04/08 12:24:02;;;;;;;1999.90;999.90;;;;;;;20.19;69.83;100733.63;10397477;28;20489;-65
2024/04/08 12:29:04;;;;;;;1999.90;999.90;;;;;;;19.81;71.21;100710.84;10397718;28;20061;-64
2024/04/08 12:34:05;;;;;;;1999.90;999.90;;;;;;;19.75;72.73;100703.47;10397536;28;20042;-64
2024/04/08 12:39:07;;;;;;;1999.90;999.90;;;;;;;19.84;74.19;100678.66;10396794;28;20053;-64
2024/04/08 12:44:09;;;;;;;1999.90;999.90;;;;;;;19.40;73.39;100682.00;10381137;28;20049;-64
2024/04/08 12:49:12;;;;;;;1999.90;999.90;;;;;;;19.58;73.79;100691.78;10397386;28;20056;-64
2024/04/08 12:54:13;;;;;;;1999.90;999.90;;;;;;;19.39;75.54;100708.69;10380513;28;20053;-64
2024/04/08 12:59:14;;;;;;;1999.90;999.90;;;;;;;19.21;75.50;100709.44;10381145;28;20057;-64
2024/04/08 13:04:16;;;;;;;1999.90;999.90;;;;;;;19.14;77.49;100688.97;10396431;28;20412;-64
2024/04/08 13:09:17;;;;;;;1999.90;999.90;;;;;;;19.18;78.17;100677.91;10396325;28;20049;-64
2024/04/08 13:14:19;;;;;;;1999.90;999.90;;;;;;;18.91;77.15;100665.44;10396792;28;20045;-64
2024/04/08 13:19:20;;;;;;;1999.90;999.90;;;;;;;19.29;74.60;100669.72;10396137;28;20409;-64
2024/04/08 13:24:21;;;;;;;1999.90;999.90;;;;;;;19.71;74.13;100668.38;10396324;28;20382;-65
2024/04/08 13:29:23;;;;;;;1999.90;999.90;;;;;;;20.08;73.38;100670.06;10396273;28;20080;-64
2024/04/08 13:34:24;;;;;;;1999.90;999.90;;;;;;;19.80;73.77;100662.19;10396529;28;20096;-65
2024/04/08 13:39:25;;;;;;;1999.90;999.90;;;;;;;19.51;73.28;100667.66;10395828;28;20080;-64
2024/04/08 13:44:27;;;;;;;1999.90;999.90;;;;;;;19.81;76.05;100649.72;10396211;28;20053;-64
2024/04/08 13:49:28;;;;;;;1999.90;999.90;;;;;;;20.28;73.25;100648.63;10398734;28;20110;-65
2024/04/08 13:54:30;;;;;;;1999.90;999.90;;;;;;;20.17;72.27;100650.56;10402738;28;20064;-64
2024/04/08 13:59:31;;;;;;;1999.90;999.90;;;;;;;20.48;70.46;100650.09;10402570;28;20425;-64
2024/04/08 14:04:33;;;;;;;1999.90;999.90;;;;;;;21.22;69.74;100645.16;10402363;28;20049;-64
2024/04/08 14:09:34;;;;;;;1999.90;999.90;;;;;;;20.55;70.10;100637.84;10402816;28;20064;-64
2024/04/08 14:14:36;;;;;;;1999.90;999.90;;;;;;;20.99;71.40;100638.75;10402047;28;20049;-64
2024/04/08 14:19:38;;;;;;;1999.90;999.90;;;;;;;23.74;64.26;100619.22;10402007;28;20507;-64
2024/04/08 14:24:40;;;;;;;1999.90;999.90;;;;;;;24.49;61.93;100606.03;10401804;28;20540;-64
2024/04/08 14:29:44;;;;;;;1999.90;999.90;;;;;;;23.99;60.43;100605.69;10402123;28;20053;-64
2024/04/08 14:34:45;;;;;;;1999.90;999.90;;;;;;;22.52;62.82;100594.78;10385591;28;20041;-64
2024/04/08 14:39:47;;;;;;;1999.90;999.90;;;;;;;21.04;67.67;100583.22;10401567;28;20053;-64
2024/04/08 14:44:48;;;;;;;1999.90;999.90;;;;;;;20.90;70.02;100577.53;10401432;28;20111;-64
2024/04/08 14:49:50;;;;;;;1999.90;999.90;;;;;;;22.77;68.43;100560.84;10384938;28;20053;-65
2024/04/08 14:54:51;;;;;;;1999.90;999.90;;;;;;;23.97;63.33;100562.25;10400499;28;20397;-65
2024/04/08 14:59:53;;;;;;;1999.90;999.90;;;;;;;24.06;63.43;100537.09;10400513;28;20061;-64
2024/04/08 15:04:54;;;;;;;1999.90;999.90;;;;;;;24.76;62.12;100534.97;10400735;28;20048;-64
2024/04/08 15:09:55;;;;;;;1999.90;999.90;;;;;;;25.52;57.63;100517.63;10437287;22;20045;-69
2024/04/08 15:14:57;;;;;;;1999.90;999.90;;;;;;;24.53;61.54;100507.47;10441094;28;20399;-69
2024/04/08 15:19:58;;;;;;;1999.90;999.90;;;;;;;25.22;57.71;100513.22;10440605;28;20461;-70
2024/04/08 15:25:01;;;;;;;1999.90;999.90;;;;;;;24.93;58.53;100507.97;10441354;28;20048;-69
2024/04/08 15:31:23;;;;;;;1999.90;999.90;;;;;;;25.61;56.38;100487.00;11509999;25;1326056;-68
2024/04/08 15:36:25;;;;;;;1999.90;999.90;;;;;;;25.48;56.24;100484.22;11476049;25;20012;-69
2024/04/08 15:41:28;;;;;;;1999.90;999.90;;;;;;;22.87;62.74;100483.22;11476377;25;20066;-68
2024/04/08 15:46:32;;;;;;;1999.90;999.90;;;;;;;22.52;64.27;100473.91;11475425;25;19997;-69
2024/04/08 15:51:35;;;;;;;1999.90;999.90;;;;;;;23.34;61.30;100465.41;11443502;25;19997;-69
2024/04/08 15:56:37;;;;;;;1999.90;999.90;;;;;;;24.59;61.85;100461.25;11475254;25;20448;-69
2024/04/08 16:01:40;;;;;;;1999.90;999.90;;;;;;;24.18;62.23;100456.41;11475347;25;20011;-69
2024/04/08 16:06:43;;;;;;;1999.90;999.90;;;;;;;24.02;62.14;100447.56;11475360;25;20016;-69
2024/04/08 16:11:47;;;;;;;1999.90;999.90;;;;;;;23.87;64.44;100444.91;11475022;25;20012;-69
2024/04/08 16:16:51;;;;;;;1999.90;999.90;;;;;;;23.88;64.47;100433.19;11475335;25;20004;-69
2024/04/08 16:21:53;;;;;;;1999.90;999.90;;;;;;;23.17;64.63;100430.81;11474891;25;20042;-69
2024/04/08 16:26:56;;;;;;;1999.90;999.90;;;;;;;23.43;64.34;100431.44;11474359;25;20448;-69
2024/04/08 16:31:58;;;;;;;1999.90;999.90;;;;;;;23.34;65.73;100447.53;11474221;25;19997;-69
2024/04/08 16:37:02;;;;;;;1999.90;999.90;;;;;;;22.99;67.26;100433.75;11473984;25;19997;-69
2024/04/08 16:42:04;;;;;;;1999.90;999.90;;;;;;;22.63;67.64;100426.34;11412047;26;19998;-69
2024/04/08 16:47:07;;;;;;;1999.90;999.90;;;;;;;22.14;69.60;100413.22;11440511;26;20066;-69
2024/04/08 16:52:09;;;;;;;1999.90;999.90;;;;;;;21.83;68.65;100407.84;11440667;26;20467;-69
2024/04/08 16:57:12;;;;;;;1999.90;999.90;;;;;;;21.10;70.07;100407.75;11408475;26;19998;-69
2024/04/08 17:02:16;;;;;;;1999.90;999.90;;;;;;;21.39;71.85;100402.91;11408233;26;20002;-68
2024/04/08 17:07:18;;;;;;;1999.90;999.90;;;;;;;21.29;71.82;100400.41;11440101;26;20042;-69
2024/04/08 17:12:21;;;;;;;1999.90;999.90;;;;;;;20.97;73.86;100399.41;11440012;26;20013;-69
2024/04/08 17:17:23;;;;;;;1999.90;999.90;;;;;;;20.59;75.15;100399.00;11407749;26;20440;-69
2024/04/08 17:22:26;;;;;;;1999.90;999.90;;;;;;;20.46;76.54;100401.28;11407831;26;20329;-69
2024/04/08 17:27:29;;;;;;;1999.90;999.90;;;;;;;20.49;75.80;100391.16;11407370;26;20008;-69
2024/04/08 17:32:31;;;;;;;1999.90;999.90;;;;;;;20.18;77.98;100381.09;11407403;26;19998;-69
2024/04/08 17:37:35;;;;;;;1999.90;999.90;;;;;;;19.90;81.16;100379.66;11407269;26;20084;-69
2024/04/08 17:42:37;;;;;;;1999.90;999.90;;;;;;;19.77;81.41;100380.09;11439331;26;20008;-68
2024/04/08 17:47:46;;;;;;;1999.90;999.90;;;;;;;19.45;85.37;100377.06;11408069;26;20001;-69
2024/04/08 17:52:48;;;;;;;1999.90;999.90;;;;;;;19.25;85.96;100367.66;11439060;26;20010;-69
2024/04/08 17:57:55;;;;;;;1999.90;999.90;;;;;;;19.16;87.66;100366.72;11438713;26;19997;-69
2024/04/08 18:02:58;;;;;;;1999.90;999.90;;;;;;;19.04;87.52;100346.75;11438602;26;20005;-69
2024/04/08 18:08:00;;;;;;;1999.90;999.90;;;;;;;18.70;90.16;100340.31;11438383;26;20005;-69
2024/04/08 18:13:03;;;;;;;1999.90;999.90;;;;;;;18.16;95.64;100342.91;11438036;26;19997;-68
2024/04/08 18:18:05;;;;;;;1999.90;999.90;;;;;;;17.94;98.10;100348.63;11438363;26;20013;-68
2024/04/08 18:23:08;;;;;;;1999.90;999.90;;;;;;;17.87;98.20;100353.66;11437964;26;19998;-68
2024/04/08 18:28:10;;;;;;;1999.90;999.90;;;;;;;17.97;97.85;100345.66;11437369;26;19998;-68
2024/04/08 18:33:13;;;;;;;1999.90;999.90;;;;;;;17.63;100.00;100349.69;11437810;26;19998;-68
2024/04/08 18:38:16;;;;;;;1999.90;999.90;;;;;;;17.33;100.00;100334.88;11405306;26;20445;-68
2024/04/08 18:43:19;;;;;;;1999.90;999.90;;;;;;;17.36;100.00;100344.31;11405498;26;20348;-68
2024/04/08 18:48:21;;;;;;;1999.90;999.90;;;;;;;17.01;100.00;100335.19;11404802;26;19998;-68
2024/04/08 18:53:24;;;;;;;1999.90;999.90;;;;;;;17.21;100.00;100336.81;11437137;26;20012;-68
2024/04/08 18:58:27;;;;;;;1999.90;999.90;;;;;;;17.28;100.00;100323.88;11436552;26;20344;-68
2024/04/08 19:03:29;;;;;;;1999.90;999.90;;;;;;;17.16;100.00;100327.66;11436032;26;20034;-68
2024/04/08 19:08:32;;;;;;;1999.90;999.90;;;;;;;17.05;100.00;100334.78;11436634;26;20139;-68
2024/04/08 19:13:34;;;;;;;1999.90;999.90;;;;;;;16.84;100.00;100326.13;11436189;26;20077;-68
2024/04/08 19:18:37;;;;;;;1999.90;999.90;;;;;;;16.72;100.00;100313.06;11436301;26;19997;-68
2024/04/08 19:23:40;;;;;;;1999.90;999.90;;;;;;;16.62;100.00;100320.16;11436836;26;20008;-68
2024/04/08 19:28:42;;;;;;;1999.90;999.90;;;;;;;16.82;100.00;100330.72;11435894;26;20337;-68
2024/04/08 19:33:45;;;;;;;1999.90;999.90;;;;;;;16.44;100.00;100321.81;11435636;26;20463;-68
2024/04/08 19:38:47;;;;;;;1999.90;999.90;;;;;;;16.48;100.00;100320.56;11435417;26;19998;-68
2024/04/08 19:43:50;;;;;;;1999.90;999.90;;;;;;;16.56;100.00;100312.78;11435043;26;20456;-68
2024/04/08 19:48:52;;;;;;;1999.90;999.90;;;;;;;16.42;100.00;100305.25;11402353;26;20001;-70
2024/04/08 19:53:55;;;;;;;1999.90;999.90;;;;;;;16.05;100.00;100301.44;11435525;26;19997;-70
2024/04/08 19:58:58;;;;;;;1999.90;999.90;;;;;;;16.23;100.00;100290.25;11402765;26;20005;-68
2024/04/08 20:04:00;;;;;;;1999.90;999.90;;;;;;;16.02;100.00;100296.47;11434568;26;20453;-68
2024/04/08 20:09:03;;;;;;;1999.90;999.90;;;;;;;16.19;100.00;100292.31;11434047;26;20330;-68
2024/04/08 20:14:06;;;;;;;1999.90;999.90;;;;;;;16.11;100.00;100282.44;11402875;26;19997;-68
2024/04/08 20:19:08;;;;;;;1999.90;999.90;;;;;;;16.16;100.00;100274.94;11409448;26;19997;-68
2024/04/08 20:24:11;;;;;;;1999.90;999.90;;;;;;;15.79;100.00;100275.53;11441353;26;20081;-68
2024/04/08 20:29:14;;;;;;;1999.90;999.90;;;;;;;15.54;100.00;100262.81;11441188;26;20009;-68
2024/04/08 20:34:16;;;;;;;1999.90;999.90;;;;;;;15.46;100.00;100257.34;11441238;26;20011;-68
2024/04/08 20:39:18;;;;;;;1999.90;999.90;;;;;;;15.46;100.00;100262.63;11408981;26;19997;-68
2024/04/08 20:44:22;;;;;;;1999.90;999.90;;;;;;;15.55;100.00;100267.94;11441180;26;19998;-68
2024/04/08 20:49:25;;;;;;;1999.90;999.90;;;;;;;15.55;100.00;100270.59;11440606;26;20065;-68
2024/04/08 20:54:27;;;;;;;1999.90;999.90;;;;;;;15.40;100.00;100264.81;11440671;26;19997;-68
2024/04/08 20:59:30;;;;;;;1999.90;999.90;;;;;;;15.32;100.00;100263.81;11408379;26;19998;-68
2024/04/08 21:04:34;;;;;;;1999.90;999.90;;;;;;;15.33;100.00;100268.09;11407853;26;19997;-68
2024/04/08 21:09:37;;;;;;;1999.90;999.90;;;;;;;15.55;100.00;100252.13;11439763;26;20480;-68
2024/04/08 21:14:39;;;;;;;1999.90;999.90;;;;;;;15.57;100.00;100246.72;11440289;26;20006;-68
2024/04/08 21:19:42;;;;;;;1999.90;999.90;;;;;;;15.71;100.00;100245.50;11439781;26;19998;-68
2024/04/08 21:24:48;;;;;;;1999.90;999.90;;;;;;;15.73;100.00;100228.53;11439272;26;20026;-68
2024/04/08 21:29:50;;;;;;;1999.90;999.90;;;;;;;15.75;100.00;100205.53;11439654;26;20016;-68
2024/04/08 21:34:53;;;;;;;1999.90;999.90;;;;;;;15.76;100.00;100201.91;11439547;26;19998;-68
2024/04/08 21:39:55;;;;;;;1999.90;999.90;;;;;;;15.95;100.00;100208.19;11407111;26;20012;-68
2024/04/08 21:44:58;;;;;;;1999.90;999.90;;;;;;;15.80;100.00;100205.09;11439064;26;20006;-68